sensor_id;sensor_type;location;lat;lon;timestamp;temperature;humidity
75931;DHT22;64609;47.052;15.462;2023-06-05T00:01:43;19.90;76.60
75931;DHT22;64609;47.052;15.462;2023-06-05T00:04:09;19.90;76.40
75931;DHT22;64609;47.052;15.462;2023-06-05T00:06:35;19.90;76.30
75931;DHT22;64609;47.052;15.462;2023-06-05T00:09:05;19.90;76.40
75931;DHT22;64609;47.052;15.462;2023-06-05T00:11:32;19.90;76.50
75931;DHT22;64609;47.052;15.462;2023-06-05T00:13:57;19.90;76.50
75931;DHT22;64609;47.052;15.462;2023-06-05T00:16:23;19.90;76.70
75931;DHT22;64609;47.052;15.462;2023-06-05T00:18:49;19.90;76.80
75931;DHT22;64609;47.052;15.462;2023-06-05T00:21:15;19.90;76.90
75931;DHT22;64609;47.052;15.462;2023-06-05T00:23:41;19.90;76.60
75931;DHT22;64609;47.052;15.462;2023-06-05T00:26:07;19.90;76.60
75931;DHT22;64609;47.052;15.462;2023-06-05T00:28:33;19.80;76.70
75931;DHT22;64609;47.052;15.462;2023-06-05T00:30:59;19.80;76.60
75931;DHT22;64609;47.052;15.462;2023-06-05T00:33:26;19.80;76.50
75931;DHT22;64609;47.052;15.462;2023-06-05T00:35:52;19.90;76.30
75931;DHT22;64609;47.052;15.462;2023-06-05T00:38:17;19.90;76.10
75931;DHT22;64609;47.052;15.462;2023-06-05T00:40:43;19.90;76.10
75931;DHT22;64609;47.052;15.462;2023-06-05T00:43:09;19.90;76.00
75931;DHT22;64609;47.052;15.462;2023-06-05T00:45:34;19.90;76.40
75931;DHT22;64609;47.052;15.462;2023-06-05T00:48:00;19.90;76.40
75931;DHT22;64609;47.052;15.462;2023-06-05T00:50:26;19.90;76.70
75931;DHT22;64609;47.052;15.462;2023-06-05T00:52:53;19.90;76.90
75931;DHT22;64609;47.052;15.462;2023-06-05T00:55:19;19.90;76.80
75931;DHT22;64609;47.052;15.462;2023-06-05T00:57:45;19.90;76.70
75931;DHT22;64609;47.052;15.462;2023-06-05T01:00:11;19.90;76.70
75931;DHT22;64609;47.052;15.462;2023-06-05T01:02:38;19.90;76.90
75931;DHT22;64609;47.052;15.462;2023-06-05T01:05:05;19.90;77.10
75931;DHT22;64609;47.052;15.462;2023-06-05T01:07:35;20.00;77.10
75931;DHT22;64609;47.052;15.462;2023-06-05T01:10:05;20.00;76.80
75931;DHT22;64609;47.052;15.462;2023-06-05T01:15:07;20.00;76.70
75931;DHT22;64609;47.052;15.462;2023-06-05T01:17:33;19.90;76.50
75931;DHT22;64609;47.052;15.462;2023-06-05T01:20:02;19.90;76.60
75931;DHT22;64609;47.052;15.462;2023-06-05T01:22:28;19.90;76.40
75931;DHT22;64609;47.052;15.462;2023-06-05T01:24:54;19.80;76.30
75931;DHT22;64609;47.052;15.462;2023-06-05T01:27:48;19.80;76.40
75931;DHT22;64609;47.052;15.462;2023-06-05T01:30:23;19.90;76.60
75931;DHT22;64609;47.052;15.462;2023-06-05T01:32:57;19.80;76.50
75931;DHT22;64609;47.052;15.462;2023-06-05T01:35:30;19.80;76.20
75931;DHT22;64609;47.052;15.462;2023-06-05T01:37:59;19.80;76.60
75931;DHT22;64609;47.052;15.462;2023-06-05T01:40:29;19.80;76.60
75931;DHT22;64609;47.052;15.462;2023-06-05T01:42:56;19.80;76.80
75931;DHT22;64609;47.052;15.462;2023-06-05T01:45:23;19.90;77.00
75931;DHT22;64609;47.052;15.462;2023-06-05T01:47:50;19.80;76.70
75931;DHT22;64609;47.052;15.462;2023-06-05T01:50:17;19.80;76.70
75931;DHT22;64609;47.052;15.462;2023-06-05T01:52:43;19.80;76.70
75931;DHT22;64609;47.052;15.462;2023-06-05T01:55:16;19.90;76.70
75931;DHT22;64609;47.052;15.462;2023-06-05T01:57:42;19.80;76.50
75931;DHT22;64609;47.052;15.462;2023-06-05T02:00:09;19.90;76.40
75931;DHT22;64609;47.052;15.462;2023-06-05T02:02:43;19.90;76.40
75931;DHT22;64609;47.052;15.462;2023-06-05T02:05:09;19.80;76.50
75931;DHT22;64609;47.052;15.462;2023-06-05T02:07:37;19.90;76.50
75931;DHT22;64609;47.052;15.462;2023-06-05T02:10:05;19.80;76.50
75931;DHT22;64609;47.052;15.462;2023-06-05T02:12:31;19.80;76.30
75931;DHT22;64609;47.052;15.462;2023-06-05T02:14:59;19.80;76.20
75931;DHT22;64609;47.052;15.462;2023-06-05T02:17:24;19.80;76.60
75931;DHT22;64609;47.052;15.462;2023-06-05T02:19:51;19.80;76.70
75931;DHT22;64609;47.052;15.462;2023-06-05T02:22:16;19.80;76.80
75931;DHT22;64609;47.052;15.462;2023-06-05T02:24:43;19.80;76.60
75931;DHT22;64609;47.052;15.462;2023-06-05T02:27:09;19.80;76.30
75931;DHT22;64609;47.052;15.462;2023-06-05T02:29:38;19.80;76.30
75931;DHT22;64609;47.052;15.462;2023-06-05T02:32:05;19.80;76.50
75931;DHT22;64609;47.052;15.462;2023-06-05T02:34:31;19.80;76.70
75931;DHT22;64609;47.052;15.462;2023-06-05T02:37:01;19.80;76.70
75931;DHT22;64609;47.052;15.462;2023-06-05T02:39:26;19.80;76.90
75931;DHT22;64609;47.052;15.462;2023-06-05T02:41:53;19.80;76.90
75931;DHT22;64609;47.052;15.462;2023-06-05T02:44:19;19.80;76.70
75931;DHT22;64609;47.052;15.462;2023-06-05T02:46:44;19.80;76.50
75931;DHT22;64609;47.052;15.462;2023-06-05T02:49:10;19.80;76.50
75931;DHT22;64609;47.052;15.462;2023-06-05T02:51:36;19.80;76.50
75931;DHT22;64609;47.052;15.462;2023-06-05T02:54:02;19.80;76.60
75931;DHT22;64609;47.052;15.462;2023-06-05T02:56:28;19.70;76.20
75931;DHT22;64609;47.052;15.462;2023-06-05T02:58:54;19.80;76.50
75931;DHT22;64609;47.052;15.462;2023-06-05T03:01:22;19.70;76.70
75931;DHT22;64609;47.052;15.462;2023-06-05T03:03:48;19.70;76.80
75931;DHT22;64609;47.052;15.462;2023-06-05T03:06:14;19.80;76.60
75931;DHT22;64609;47.052;15.462;2023-06-05T03:08:43;19.80;76.50
75931;DHT22;64609;47.052;15.462;2023-06-05T03:11:09;19.80;76.60
75931;DHT22;64609;47.052;15.462;2023-06-05T03:13:35;19.80;76.60
75931;DHT22;64609;47.052;15.462;2023-06-05T03:16:01;19.80;76.90
75931;DHT22;64609;47.052;15.462;2023-06-05T03:18:27;19.70;76.70
75931;DHT22;64609;47.052;15.462;2023-06-05T03:20:54;19.80;76.80
75931;DHT22;64609;47.052;15.462;2023-06-05T03:23:23;19.70;76.90
75931;DHT22;64609;47.052;15.462;2023-06-05T03:25:50;19.80;76.90
75931;DHT22;64609;47.052;15.462;2023-06-05T03:28:17;19.70;76.90
75931;DHT22;64609;47.052;15.462;2023-06-05T03:30:44;19.80;77.00
75931;DHT22;64609;47.052;15.462;2023-06-05T03:33:10;19.70;76.90
75931;DHT22;64609;47.052;15.462;2023-06-05T03:35:35;19.70;77.00
75931;DHT22;64609;47.052;15.462;2023-06-05T03:38:02;19.70;76.80
75931;DHT22;64609;47.052;15.462;2023-06-05T03:40:28;19.70;76.70
75931;DHT22;64609;47.052;15.462;2023-06-05T03:42:53;19.70;76.70
75931;DHT22;64609;47.052;15.462;2023-06-05T03:45:19;19.80;77.10
75931;DHT22;64609;47.052;15.462;2023-06-05T03:47:45;19.80;77.10
75931;DHT22;64609;47.052;15.462;2023-06-05T03:50:15;19.80;77.00
75931;DHT22;64609;47.052;15.462;2023-06-05T03:52:41;19.80;76.90
75931;DHT22;64609;47.052;15.462;2023-06-05T03:55:08;19.80;76.90
75931;DHT22;64609;47.052;15.462;2023-06-05T03:57:34;19.80;76.80
75931;DHT22;64609;47.052;15.462;2023-06-05T04:00:00;19.80;76.60
75931;DHT22;64609;47.052;15.462;2023-06-05T04:02:26;19.80;76.50
75931;DHT22;64609;47.052;15.462;2023-06-05T04:04:51;19.90;76.50
75931;DHT22;64609;47.052;15.462;2023-06-05T04:07:17;19.90;76.70
75931;DHT22;64609;47.052;15.462;2023-06-05T04:09:43;19.90;77.60
75931;DHT22;64609;47.052;15.462;2023-06-05T04:12:09;19.90;76.70
75931;DHT22;64609;47.052;15.462;2023-06-05T04:14:39;19.90;76.80
75931;DHT22;64609;47.052;15.462;2023-06-05T04:17:05;19.90;77.00
75931;DHT22;64609;47.052;15.462;2023-06-05T04:19:30;19.90;76.80
75931;DHT22;64609;47.052;15.462;2023-06-05T04:21:56;19.90;76.40
75931;DHT22;64609;47.052;15.462;2023-06-05T04:24:22;19.90;76.20
75931;DHT22;64609;47.052;15.462;2023-06-05T04:26:50;19.90;76.00
75931;DHT22;64609;47.052;15.462;2023-06-05T04:29:16;19.90;76.40
75931;DHT22;64609;47.052;15.462;2023-06-05T04:31:51;19.90;76.50
75931;DHT22;64609;47.052;15.462;2023-06-05T04:34:17;20.00;76.60
75931;DHT22;64609;47.052;15.462;2023-06-05T04:36:46;20.00;76.90
75931;DHT22;64609;47.052;15.462;2023-06-05T04:39:15;20.00;76.60
75931;DHT22;64609;47.052;15.462;2023-06-05T04:41:44;20.10;76.60
75931;DHT22;64609;47.052;15.462;2023-06-05T04:44:14;20.10;76.20
75931;DHT22;64609;47.052;15.462;2023-06-05T04:46:42;20.10;76.20
75931;DHT22;64609;47.052;15.462;2023-06-05T04:49:13;20.20;76.10
75931;DHT22;64609;47.052;15.462;2023-06-05T04:51:39;20.20;76.20
75931;DHT22;64609;47.052;15.462;2023-06-05T04:54:06;20.10;75.50
75931;DHT22;64609;47.052;15.462;2023-06-05T04:56:32;20.20;75.60
75931;DHT22;64609;47.052;15.462;2023-06-05T04:59:00;20.20;75.80
75931;DHT22;64609;47.052;15.462;2023-06-05T05:01:27;20.20;75.80
75931;DHT22;64609;47.052;15.462;2023-06-05T05:03:53;20.20;75.60
75931;DHT22;64609;47.052;15.462;2023-06-05T05:06:20;20.10;75.30
75931;DHT22;64609;47.052;15.462;2023-06-05T05:08:47;20.20;75.50
75931;DHT22;64609;47.052;15.462;2023-06-05T05:11:19;20.20;75.80
75931;DHT22;64609;47.052;15.462;2023-06-05T05:13:45;20.20;75.70
75931;DHT22;64609;47.052;15.462;2023-06-05T05:16:11;20.30;75.80
75931;DHT22;64609;47.052;15.462;2023-06-05T05:18:42;20.30;75.70
75931;DHT22;64609;47.052;15.462;2023-06-05T05:21:08;20.30;75.90
75931;DHT22;64609;47.052;15.462;2023-06-05T05:23:34;20.30;75.30
75931;DHT22;64609;47.052;15.462;2023-06-05T05:26:00;20.20;75.20
75931;DHT22;64609;47.052;15.462;2023-06-05T05:28:27;20.20;75.30
75931;DHT22;64609;47.052;15.462;2023-06-05T05:30:53;20.20;75.40
75931;DHT22;64609;47.052;15.462;2023-06-05T05:33:18;20.20;75.50
75931;DHT22;64609;47.052;15.462;2023-06-05T05:35:45;20.20;75.20
75931;DHT22;64609;47.052;15.462;2023-06-05T05:38:10;20.20;75.10
75931;DHT22;64609;47.052;15.462;2023-06-05T05:40:36;20.20;75.20
75931;DHT22;64609;47.052;15.462;2023-06-05T05:43:01;20.20;75.40
75931;DHT22;64609;47.052;15.462;2023-06-05T05:45:27;20.30;75.30
75931;DHT22;64609;47.052;15.462;2023-06-05T05:47:53;20.30;75.00
75931;DHT22;64609;47.052;15.462;2023-06-05T05:50:18;20.30;74.60
75931;DHT22;64609;47.052;15.462;2023-06-05T05:52:44;20.40;74.60
75931;DHT22;64609;47.052;15.462;2023-06-05T05:55:10;20.40;74.40
75931;DHT22;64609;47.052;15.462;2023-06-05T05:57:36;20.40;74.40
75931;DHT22;64609;47.052;15.462;2023-06-05T06:00:03;20.40;74.40
75931;DHT22;64609;47.052;15.462;2023-06-05T06:02:34;20.50;74.60
75931;DHT22;64609;47.052;15.462;2023-06-05T06:04:59;20.50;74.60
75931;DHT22;64609;47.052;15.462;2023-06-05T06:07:28;20.50;74.90
75931;DHT22;64609;47.052;15.462;2023-06-05T06:09:54;20.60;74.80
75931;DHT22;64609;47.052;15.462;2023-06-05T06:12:19;20.70;74.50
75931;DHT22;64609;47.052;15.462;2023-06-05T06:14:45;20.70;74.20
75931;DHT22;64609;47.052;15.462;2023-06-05T06:17:13;20.70;73.70
75931;DHT22;64609;47.052;15.462;2023-06-05T06:19:39;20.70;73.60
75931;DHT22;64609;47.052;15.462;2023-06-05T06:22:04;20.60;73.10
75931;DHT22;64609;47.052;15.462;2023-06-05T06:24:37;20.60;73.50
75931;DHT22;64609;47.052;15.462;2023-06-05T06:27:03;20.70;73.70
75931;DHT22;64609;47.052;15.462;2023-06-05T06:29:29;20.70;73.70
75931;DHT22;64609;47.052;15.462;2023-06-05T06:31:56;20.70;73.40
75931;DHT22;64609;47.052;15.462;2023-06-05T06:34:22;20.60;72.80
75931;DHT22;64609;47.052;15.462;2023-06-05T06:36:50;20.70;73.10
75931;DHT22;64609;47.052;15.462;2023-06-05T06:39:16;20.70;72.90
75931;DHT22;64609;47.052;15.462;2023-06-05T06:41:43;20.70;72.80
75931;DHT22;64609;47.052;15.462;2023-06-05T06:44:10;20.70;72.60
75931;DHT22;64609;47.052;15.462;2023-06-05T06:46:36;20.70;72.80
75931;DHT22;64609;47.052;15.462;2023-06-05T06:49:02;20.70;72.50
75931;DHT22;64609;47.052;15.462;2023-06-05T06:51:28;20.80;72.50
75931;DHT22;64609;47.052;15.462;2023-06-05T06:53:54;20.80;72.70
75931;DHT22;64609;47.052;15.462;2023-06-05T06:56:20;20.70;72.00
75931;DHT22;64609;47.052;15.462;2023-06-05T06:58:46;20.70;72.10
75931;DHT22;64609;47.052;15.462;2023-06-05T07:01:13;20.80;72.60
75931;DHT22;64609;47.052;15.462;2023-06-05T07:03:40;20.80;72.70
75931;DHT22;64609;47.052;15.462;2023-06-05T07:06:06;20.90;72.40
75931;DHT22;64609;47.052;15.462;2023-06-05T07:08:33;20.90;72.20
75931;DHT22;64609;47.052;15.462;2023-06-05T07:10:58;20.80;72.00
75931;DHT22;64609;47.052;15.462;2023-06-05T07:13:24;20.80;72.20
75931;DHT22;64609;47.052;15.462;2023-06-05T07:15:51;20.80;72.30
75931;DHT22;64609;47.052;15.462;2023-06-05T07:18:17;20.80;72.30
75931;DHT22;64609;47.052;15.462;2023-06-05T07:20:43;20.70;72.40
75931;DHT22;64609;47.052;15.462;2023-06-05T07:23:09;20.60;72.60
75931;DHT22;64609;47.052;15.462;2023-06-05T07:25:35;20.60;72.70
75931;DHT22;64609;47.052;15.462;2023-06-05T07:28:07;20.60;72.80
75931;DHT22;64609;47.052;15.462;2023-06-05T07:30:33;20.60;72.90
75931;DHT22;64609;47.052;15.462;2023-06-05T07:32:59;20.50;72.10
75931;DHT22;64609;47.052;15.462;2023-06-05T07:35:24;20.50;72.00
75931;DHT22;64609;47.052;15.462;2023-06-05T07:37:50;20.50;71.80
75931;DHT22;64609;47.052;15.462;2023-06-05T07:40:16;20.50;71.10
75931;DHT22;64609;47.052;15.462;2023-06-05T07:42:42;20.40;71.20
75931;DHT22;64609;47.052;15.462;2023-06-05T07:45:08;20.40;71.30
75931;DHT22;64609;47.052;15.462;2023-06-05T07:47:34;20.30;70.40
75931;DHT22;64609;47.052;15.462;2023-06-05T07:50:00;20.20;70.70
75931;DHT22;64609;47.052;15.462;2023-06-05T07:52:30;20.20;70.60
75931;DHT22;64609;47.052;15.462;2023-06-05T07:54:56;20.20;70.90
75931;DHT22;64609;47.052;15.462;2023-06-05T07:57:23;20.10;70.20
75931;DHT22;64609;47.052;15.462;2023-06-05T07:59:53;20.10;70.60
75931;DHT22;64609;47.052;15.462;2023-06-05T08:02:20;20.20;70.80
75931;DHT22;64609;47.052;15.462;2023-06-05T08:04:47;20.10;70.80
75931;DHT22;64609;47.052;15.462;2023-06-05T08:07:13;20.00;71.20
75931;DHT22;64609;47.052;15.462;2023-06-05T08:09:38;20.10;71.70
75931;DHT22;64609;47.052;15.462;2023-06-05T08:12:05;20.10;71.80
75931;DHT22;64609;47.052;15.462;2023-06-05T08:14:33;20.20;72.20
75931;DHT22;64609;47.052;15.462;2023-06-05T08:16:58;20.20;72.30
75931;DHT22;64609;47.052;15.462;2023-06-05T08:19:24;20.10;72.10
75931;DHT22;64609;47.052;15.462;2023-06-05T08:21:51;20.10;72.50
75931;DHT22;64609;47.052;15.462;2023-06-05T08:24:17;20.00;73.20
75931;DHT22;64609;47.052;15.462;2023-06-05T08:26:43;20.00;73.40
75931;DHT22;64609;47.052;15.462;2023-06-05T08:29:08;20.00;73.70
75931;DHT22;64609;47.052;15.462;2023-06-05T08:31:34;19.90;74.00
75931;DHT22;64609;47.052;15.462;2023-06-05T08:34:02;19.70;74.70
75931;DHT22;64609;47.052;15.462;2023-06-05T08:36:28;19.80;75.20
75931;DHT22;64609;47.052;15.462;2023-06-05T08:38:54;19.90;75.30
75931;DHT22;64609;47.052;15.462;2023-06-05T08:41:19;19.90;75.40
75931;DHT22;64609;47.052;15.462;2023-06-05T08:43:46;20.00;75.30
75931;DHT22;64609;47.052;15.462;2023-06-05T08:46:13;20.10;75.20
75931;DHT22;64609;47.052;15.462;2023-06-05T08:48:44;20.10;75.20
75931;DHT22;64609;47.052;15.462;2023-06-05T08:51:11;20.00;75.30
75931;DHT22;64609;47.052;15.462;2023-06-05T08:53:39;20.00;75.00
75931;DHT22;64609;47.052;15.462;2023-06-05T08:56:06;20.10;75.20
75931;DHT22;64609;47.052;15.462;2023-06-05T08:58:32;20.10;75.00
75931;DHT22;64609;47.052;15.462;2023-06-05T09:00:59;20.10;75.30
75931;DHT22;64609;47.052;15.462;2023-06-05T09:03:25;20.10;75.40
75931;DHT22;64609;47.052;15.462;2023-06-05T09:05:54;20.10;75.70
75931;DHT22;64609;47.052;15.462;2023-06-05T09:08:29;20.20;76.00
75931;DHT22;64609;47.052;15.462;2023-06-05T09:11:27;20.30;76.30
75931;DHT22;64609;47.052;15.462;2023-06-05T09:13:55;20.40;76.20
75931;DHT22;64609;47.052;15.462;2023-06-05T09:16:42;20.40;76.10
75931;DHT22;64609;47.052;15.462;2023-06-05T09:19:09;20.50;76.30
75931;DHT22;64609;47.052;15.462;2023-06-05T09:21:35;20.50;76.30
75931;DHT22;64609;47.052;15.462;2023-06-05T09:24:16;20.50;76.00
75931;DHT22;64609;47.052;15.462;2023-06-05T09:26:53;20.60;76.30
75931;DHT22;64609;47.052;15.462;2023-06-05T09:31:51;20.70;76.10
75931;DHT22;64609;47.052;15.462;2023-06-05T09:34:37;20.80;76.40
75931;DHT22;64609;47.052;15.462;2023-06-05T09:37:08;20.90;76.50
75931;DHT22;64609;47.052;15.462;2023-06-05T09:39:38;21.00;76.20
75931;DHT22;64609;47.052;15.462;2023-06-05T09:42:05;21.00;76.20
75931;DHT22;64609;47.052;15.462;2023-06-05T09:44:32;21.00;75.90
75931;DHT22;64609;47.052;15.462;2023-06-05T09:47:06;21.10;75.90
75931;DHT22;64609;47.052;15.462;2023-06-05T09:52:06;20.90;75.60
75931;DHT22;64609;47.052;15.462;2023-06-05T09:54:32;20.90;75.70
75931;DHT22;64609;47.052;15.462;2023-06-05T09:57:05;20.80;76.00
75931;DHT22;64609;47.052;15.462;2023-06-05T09:59:38;20.80;76.40
75931;DHT22;64609;47.052;15.462;2023-06-05T10:02:09;20.80;76.60
75931;DHT22;64609;47.052;15.462;2023-06-05T10:05:17;20.80;76.50
75931;DHT22;64609;47.052;15.462;2023-06-05T10:07:37;20.80;76.20
75931;DHT22;64609;47.052;15.462;2023-06-05T10:10:04;20.80;76.40
75931;DHT22;64609;47.052;15.462;2023-06-05T10:12:31;20.90;76.70
75931;DHT22;64609;47.052;15.462;2023-06-05T10:14:57;21.00;76.90
75931;DHT22;64609;47.052;15.462;2023-06-05T10:17:23;21.00;76.90
75931;DHT22;64609;47.052;15.462;2023-06-05T10:19:50;21.00;76.90
75931;DHT22;64609;47.052;15.462;2023-06-05T10:22:17;21.00;77.00
75931;DHT22;64609;47.052;15.462;2023-06-05T10:24:52;21.10;76.90
75931;DHT22;64609;47.052;15.462;2023-06-05T10:35:48;21.20;76.10
75931;DHT22;64609;47.052;15.462;2023-06-05T10:38:21;21.30;76.40
75931;DHT22;64609;47.052;15.462;2023-06-05T10:40:54;21.30;75.90
75931;DHT22;64609;47.052;15.462;2023-06-05T10:45:58;21.30;75.90
75931;DHT22;64609;47.052;15.462;2023-06-05T10:51:49;21.30;75.30
75931;DHT22;64609;47.052;15.462;2023-06-05T10:56:56;21.10;75.70
75931;DHT22;64609;47.052;15.462;2023-06-05T10:59:26;21.20;75.80
75931;DHT22;64609;47.052;15.462;2023-06-05T11:07:28;21.10;75.60
75931;DHT22;64609;47.052;15.462;2023-06-05T11:15:10;21.20;75.40
75931;DHT22;64609;47.052;15.462;2023-06-05T11:17:45;21.20;75.50
75931;DHT22;64609;47.052;15.462;2023-06-05T11:27:48;21.00;75.10
75931;DHT22;64609;47.052;15.462;2023-06-05T11:30:16;21.00;75.40
75931;DHT22;64609;47.052;15.462;2023-06-05T11:32:43;20.90;74.80
75931;DHT22;64609;47.052;15.462;2023-06-05T11:35:09;20.80;76.10
75931;DHT22;64609;47.052;15.462;2023-06-05T11:37:35;20.70;75.40
75931;DHT22;64609;47.052;15.462;2023-06-05T11:40:06;20.70;75.70
75931;DHT22;64609;47.052;15.462;2023-06-05T11:42:38;20.70;75.70
75931;DHT22;64609;47.052;15.462;2023-06-05T11:45:11;20.70;76.10
75931;DHT22;64609;47.052;15.462;2023-06-05T11:47:38;20.80;76.10
75931;DHT22;64609;47.052;15.462;2023-06-05T11:50:10;20.80;76.00
75931;DHT22;64609;47.052;15.462;2023-06-05T11:52:37;20.90;76.00
75931;DHT22;64609;47.052;15.462;2023-06-05T11:55:16;20.90;75.80
75931;DHT22;64609;47.052;15.462;2023-06-05T11:57:46;21.00;75.50
75931;DHT22;64609;47.052;15.462;2023-06-05T12:00:15;21.00;75.70
75931;DHT22;64609;47.052;15.462;2023-06-05T12:02:42;21.00;75.30
75931;DHT22;64609;47.052;15.462;2023-06-05T12:05:09;21.00;75.50
75931;DHT22;64609;47.052;15.462;2023-06-05T12:07:35;21.00;75.50
75931;DHT22;64609;47.052;15.462;2023-06-05T12:10:06;21.10;75.60
75931;DHT22;64609;47.052;15.462;2023-06-05T12:12:48;21.10;75.70
75931;DHT22;64609;47.052;15.462;2023-06-05T12:17:40;21.20;76.00
75931;DHT22;64609;47.052;15.462;2023-06-05T12:20:13;21.20;76.00
75931;DHT22;64609;47.052;15.462;2023-06-05T12:22:39;21.30;76.00
75931;DHT22;64609;47.052;15.462;2023-06-05T12:25:22;21.30;76.00
75931;DHT22;64609;47.052;15.462;2023-06-05T12:27:48;21.40;76.20
75931;DHT22;64609;47.052;15.462;2023-06-05T12:30:14;21.40;76.10
75931;DHT22;64609;47.052;15.462;2023-06-05T12:32:43;21.40;76.40
75931;DHT22;64609;47.052;15.462;2023-06-05T12:35:23;21.40;76.60
75931;DHT22;64609;47.052;15.462;2023-06-05T12:37:50;21.50;76.20
75931;DHT22;64609;47.052;15.462;2023-06-05T12:40:17;21.50;76.20
75931;DHT22;64609;47.052;15.462;2023-06-05T12:42:46;21.50;76.30
75931;DHT22;64609;47.052;15.462;2023-06-05T12:45:13;21.50;76.20
75931;DHT22;64609;47.052;15.462;2023-06-05T12:47:39;21.50;76.20
75931;DHT22;64609;47.052;15.462;2023-06-05T12:50:07;21.40;76.50
75931;DHT22;64609;47.052;15.462;2023-06-05T12:52:33;21.40;76.40
75931;DHT22;64609;47.052;15.462;2023-06-05T12:55:00;21.40;76.60
75931;DHT22;64609;47.052;15.462;2023-06-05T12:57:26;21.40;76.50
75931;DHT22;64609;47.052;15.462;2023-06-05T12:59:53;21.40;76.60
75931;DHT22;64609;47.052;15.462;2023-06-05T13:02:21;21.40;76.50
75931;DHT22;64609;47.052;15.462;2023-06-05T13:04:46;21.50;76.20
75931;DHT22;64609;47.052;15.462;2023-06-05T13:07:12;21.50;76.10
75931;DHT22;64609;47.052;15.462;2023-06-05T13:09:38;21.50;76.20
75931;DHT22;64609;47.052;15.462;2023-06-05T13:12:04;21.50;76.20
75931;DHT22;64609;47.052;15.462;2023-06-05T13:14:31;21.60;76.50
75931;DHT22;64609;47.052;15.462;2023-06-05T13:16:57;21.60;76.50
75931;DHT22;64609;47.052;15.462;2023-06-05T13:19:23;21.60;76.30
75931;DHT22;64609;47.052;15.462;2023-06-05T13:21:49;21.60;76.50
75931;DHT22;64609;47.052;15.462;2023-06-05T13:24:15;21.60;76.60
75931;DHT22;64609;47.052;15.462;2023-06-05T13:26:40;21.60;76.50
75931;DHT22;64609;47.052;15.462;2023-06-05T13:29:10;21.60;76.60
75931;DHT22;64609;47.052;15.462;2023-06-05T13:31:36;21.60;76.60
75931;DHT22;64609;47.052;15.462;2023-06-05T13:34:02;21.70;76.70
75931;DHT22;64609;47.052;15.462;2023-06-05T13:36:27;21.60;76.50
75931;DHT22;64609;47.052;15.462;2023-06-05T13:38:54;21.70;76.50
75931;DHT22;64609;47.052;15.462;2023-06-05T13:41:20;21.70;76.40
75931;DHT22;64609;47.052;15.462;2023-06-05T13:43:46;21.70;76.40
75931;DHT22;64609;47.052;15.462;2023-06-05T13:46:12;21.70;76.40
75931;DHT22;64609;47.052;15.462;2023-06-05T13:48:38;21.70;76.20
75931;DHT22;64609;47.052;15.462;2023-06-05T13:51:04;21.70;76.40
75931;DHT22;64609;47.052;15.462;2023-06-05T13:53:30;21.70;76.50
75931;DHT22;64609;47.052;15.462;2023-06-05T13:56:03;21.70;76.50
75931;DHT22;64609;47.052;15.462;2023-06-05T13:58:29;21.70;76.50
75931;DHT22;64609;47.052;15.462;2023-06-05T14:00:55;21.70;76.30
75931;DHT22;64609;47.052;15.462;2023-06-05T14:03:22;21.70;76.10
75931;DHT22;64609;47.052;15.462;2023-06-05T14:05:47;21.70;75.90
75931;DHT22;64609;47.052;15.462;2023-06-05T14:08:13;21.70;75.90
75931;DHT22;64609;47.052;15.462;2023-06-05T14:10:39;21.70;75.90
75931;DHT22;64609;47.052;15.462;2023-06-05T14:13:05;21.60;76.10
75931;DHT22;64609;47.052;15.462;2023-06-05T14:15:31;21.60;76.20
75931;DHT22;64609;47.052;15.462;2023-06-05T14:18:00;21.60;76.40
75931;DHT22;64609;47.052;15.462;2023-06-05T14:20:26;21.50;76.40
75931;DHT22;64609;47.052;15.462;2023-06-05T14:22:52;21.60;76.50
75931;DHT22;64609;47.052;15.462;2023-06-05T14:25:18;21.60;76.50
75931;DHT22;64609;47.052;15.462;2023-06-05T14:27:44;21.60;76.40
75931;DHT22;64609;47.052;15.462;2023-06-05T14:30:10;21.60;76.50
75931;DHT22;64609;47.052;15.462;2023-06-05T14:32:36;21.60;76.60
75931;DHT22;64609;47.052;15.462;2023-06-05T14:35:02;21.60;76.50
75931;DHT22;64609;47.052;15.462;2023-06-05T14:37:28;21.60;76.60
75931;DHT22;64609;47.052;15.462;2023-06-05T14:39:53;21.60;76.30
75931;DHT22;64609;47.052;15.462;2023-06-05T14:42:21;21.60;76.40
75931;DHT22;64609;47.052;15.462;2023-06-05T14:44:47;21.60;76.50
75931;DHT22;64609;47.052;15.462;2023-06-05T14:47:12;21.60;76.50
75931;DHT22;64609;47.052;15.462;2023-06-05T14:49:38;21.60;76.50
75931;DHT22;64609;47.052;15.462;2023-06-05T14:52:04;21.60;76.70
75931;DHT22;64609;47.052;15.462;2023-06-05T14:54:30;21.50;76.50
75931;DHT22;64609;47.052;15.462;2023-06-05T14:56:56;21.50;76.70
75931;DHT22;64609;47.052;15.462;2023-06-05T14:59:21;21.50;76.60
75931;DHT22;64609;47.052;15.462;2023-06-05T15:01:47;21.50;76.70
75931;DHT22;64609;47.052;15.462;2023-06-05T15:04:13;21.50;76.70
75931;DHT22;64609;47.052;15.462;2023-06-05T15:06:40;21.50;76.70
75931;DHT22;64609;47.052;15.462;2023-06-05T15:09:05;21.50;76.80
75931;DHT22;64609;47.052;15.462;2023-06-05T15:11:31;21.50;76.90
75931;DHT22;64609;47.052;15.462;2023-06-05T15:13:57;21.50;76.60
75931;DHT22;64609;47.052;15.462;2023-06-05T15:16:23;21.50;76.60
75931;DHT22;64609;47.052;15.462;2023-06-05T15:18:50;21.50;76.80
75931;DHT22;64609;47.052;15.462;2023-06-05T15:21:16;21.50;76.70
75931;DHT22;64609;47.052;15.462;2023-06-05T15:23:41;21.50;76.20
75931;DHT22;64609;47.052;15.462;2023-06-05T15:26:07;21.50;76.20
75931;DHT22;64609;47.052;15.462;2023-06-05T15:28:33;21.50;76.20
75931;DHT22;64609;47.052;15.462;2023-06-05T15:30:58;21.40;76.30
75931;DHT22;64609;47.052;15.462;2023-06-05T15:33:24;21.40;76.40
75931;DHT22;64609;47.052;15.462;2023-06-05T15:35:50;21.40;76.50
75931;DHT22;64609;47.052;15.462;2023-06-05T15:38:16;21.40;76.70
75931;DHT22;64609;47.052;15.462;2023-06-05T15:40:41;21.40;76.80
75931;DHT22;64609;47.052;15.462;2023-06-05T15:43:09;21.40;76.80
75931;DHT22;64609;47.052;15.462;2023-06-05T15:45:38;21.40;76.70
75931;DHT22;64609;47.052;15.462;2023-06-05T15:48:04;21.40;76.70
75931;DHT22;64609;47.052;15.462;2023-06-05T15:50:30;21.40;77.00
75931;DHT22;64609;47.052;15.462;2023-06-05T15:52:57;21.50;77.20
75931;DHT22;64609;47.052;15.462;2023-06-05T15:55:23;21.50;76.90
75931;DHT22;64609;47.052;15.462;2023-06-05T15:57:49;21.60;76.90
75931;DHT22;64609;47.052;15.462;2023-06-05T16:00:16;21.60;76.40
75931;DHT22;64609;47.052;15.462;2023-06-05T16:02:42;21.60;76.30